Time;durP1;ratioP1;P1;durP2;ratioP2;P2;SDS_P1;SDS_P2;PMS_P1;PMS_P2;Temp;Humidity;BMP_temperature;BMP_pressure;BME280_temperature;BME280_humidity;BME280_pressure;Samples;Min_cycle;Max_cycle;Signal;HPM_P1;HPM_P2
2023/02/04 00:02:23;;;;;;;5.63;3.28;;;;;;;7.99;54.72;100381.41;5094316;28;20485;-47
2023/02/04 00:04:48;;;;;;;6.50;3.75;;;;;;;7.67;55.40;100391.38;5094167;28;20114;-48
2023/02/04 00:07:17;;;;;;;6.75;3.30;;;;;;;7.59;55.57;100394.69;5094202;28;20089;-48
2023/02/04 00:09:45;;;;;;;4.63;3.47;;;;;;;7.62;55.81;100404.03;5095403;28;20075;-48
2023/02/04 00:12:12;;;;;;;5.15;3.28;;;;;;;7.64;55.67;100402.09;5095440;28;20107;-48
2023/02/04 00:14:38;;;;;;;6.57;4.10;;;;;;;7.62;55.73;100398.81;5094068;28;20031;-48
2023/02/04 00:17:03;;;;;;;9.35;4.00;;;;;;;7.58;56.56;100403.47;5095307;28;20020;-48
2023/02/04 00:19:29;;;;;;;6.82;3.55;;;;;;;7.75;57.02;100401.97;5095318;28;20024;-48
2023/02/04 00:21:54;;;;;;;11.55;3.80;;;;;;;8.02;57.25;100389.94;5093868;28;20020;-47
2023/02/04 00:24:20;;;;;;;6.53;3.60;;;;;;;8.23;56.46;100395.81;5094735;28;20055;-48
2023/02/04 00:26:45;;;;;;;9.13;4.07;;;;;;;8.30;56.31;100391.63;5093858;28;20028;-48
2023/02/04 00:29:11;;;;;;;11.45;4.10;;;;;;;8.45;56.03;100397.28;5093800;28;20031;-48
2023/02/04 00:31:36;;;;;;;6.00;4.22;;;;;;;8.53;55.54;100389.53;5095048;28;20409;-47
2023/02/04 00:34:02;;;;;;;5.68;4.30;;;;;;;8.32;55.43;100381.03;5093823;28;20393;-48
2023/02/04 00:36:28;;;;;;;6.90;3.95;;;;;;;8.38;56.01;100380.47;5095286;28;20028;-48
2023/02/04 00:38:53;;;;;;;6.85;3.92;;;;;;;8.43;56.25;100377.44;5093664;28;20477;-48
2023/02/04 00:41:19;;;;;;;11.45;4.43;;;;;;;8.58;56.36;100381.22;5094896;28;20020;-48
2023/02/04 00:43:44;;;;;;;9.13;3.72;;;;;;;8.73;55.90;100377.16;5093431;28;20035;-48
2023/02/04 00:46:10;;;;;;;11.48;3.80;;;;;;;8.77;55.60;100375.06;5094792;28;20482;-48
2023/02/04 00:48:36;;;;;;;6.20;4.13;;;;;;;8.77;55.13;100367.19;5094763;28;20053;-48
2023/02/04 00:51:01;;;;;;;11.85;4.35;;;;;;;8.80;55.24;100370.34;5093918;28;20438;-48
2023/02/04 00:53:27;;;;;;;7.53;3.80;;;;;;;8.90;55.47;100369.47;5076576;28;20031;-48
2023/02/04 00:55:52;;;;;;;9.27;3.65;;;;;;;8.98;55.11;100370.38;5093509;28;20040;-48
2023/02/04 00:58:18;;;;;;;8.88;4.20;;;;;;;9.07;54.99;100367.84;5076416;28;20020;-48
2023/02/04 01:00:44;;;;;;;8.05;4.13;;;;;;;9.11;55.05;100359.53;5094465;28;20024;-47
2023/02/04 01:03:09;;;;;;;11.93;9.70;;;;;;;9.18;54.98;100354.53;5093083;28;20016;-48
2023/02/04 01:05:35;;;;;;;5.35;3.78;;;;;;;9.13;55.00;100351.53;5093095;28;20028;-48
2023/02/04 01:08:01;;;;;;;10.65;3.97;;;;;;;9.00;54.57;100357.16;5094606;28;20051;-48
2023/02/04 01:10:27;;;;;;;7.35;5.63;;;;;;;8.87;54.95;100352.25;5092985;28;20432;-47
2023/02/04 01:12:53;;;;;;;10.40;5.93;;;;;;;8.81;55.36;100350.22;5094261;28;20024;-48
2023/02/04 01:15:18;;;;;;;24.33;14.50;;;;;;;8.82;55.60;100346.66;5092872;28;20127;-48
2023/02/04 01:17:44;;;;;;;21.67;15.25;;;;;;;8.91;55.81;100353.59;5092900;28;20085;-48
2023/02/04 01:20:10;;;;;;;9.32;4.65;;;;;;;9.11;56.03;100350.84;5094107;28;20503;-48
2023/02/04 01:22:35;;;;;;;11.43;4.20;;;;;;;9.23;55.79;100351.47;5092544;28;20044;-48
2023/02/04 01:25:01;;;;;;;8.13;3.75;;;;;;;9.38;55.45;100350.78;5075909;28;20020;-48
2023/02/04 01:27:27;;;;;;;14.70;4.47;;;;;;;9.52;55.44;100352.03;5092725;28;20024;-48
2023/02/04 01:29:52;;;;;;;9.40;4.30;;;;;;;9.67;54.93;100349.66;5092605;28;20431;-48
2023/02/04 01:32:18;;;;;;;8.93;4.50;;;;;;;9.57;54.38;100349.75;5092605;28;20032;-48
2023/02/04 01:34:43;;;;;;;6.68;4.00;;;;;;;9.58;54.57;100354.03;5092510;28;20031;-48
2023/02/04 01:37:09;;;;;;;6.53;4.18;;;;;;;9.54;54.48;100351.88;5093832;28;20103;-48
2023/02/04 01:39:35;;;;;;;8.82;5.10;;;;;;;9.52;54.72;100357.28;5075534;28;20028;-48
2023/02/04 01:42:02;;;;;;;17.15;6.28;;;;;;;9.46;54.31;100344.78;5093741;28;20086;-48
2023/02/04 01:44:28;;;;;;;20.98;8.70;;;;;;;9.37;54.32;100348.31;5092269;28;20021;-48
2023/02/04 01:46:54;;;;;;;19.27;9.07;;;;;;;9.19;54.19;100345.69;5092300;28;20401;-48
2023/02/04 01:49:20;;;;;;;24.27;9.80;;;;;;;8.87;53.78;100349.63;5092276;28;20055;-48
2023/02/04 01:51:46;;;;;;;30.35;9.70;;;;;;;8.41;53.67;100348.81;5092140;28;20487;-48
2023/02/04 01:54:13;;;;;;;22.20;7.38;;;;;;;7.86;54.04;100349.53;5092165;28;20020;-48
2023/02/04 01:56:42;;;;;;;24.65;9.25;;;;;;;7.33;54.78;100345.63;5092052;28;20089;-48
2023/02/04 01:59:13;;;;;;;13.43;6.38;;;;;;;6.90;56.64;100348.59;5093378;28;20099;-47
2023/02/04 02:01:46;;;;;;;13.90;7.80;;;;;;;6.66;57.32;100346.38;5091999;28;20191;-48
2023/02/04 02:04:17;;;;;;;22.92;7.47;;;;;;;6.46;57.60;100343.72;5090900;28;20090;-48
2023/02/04 02:06:48;;;;;;;12.02;7.30;;;;;;;6.43;58.27;100343.97;5092193;28;20040;-48
2023/02/04 02:09:15;;;;;;;10.25;5.68;;;;;;;6.50;59.33;100339.88;5093232;28;20028;-48
2023/02/04 02:11:40;;;;;;;11.60;7.80;;;;;;;6.54;58.84;100336.06;5091871;28;20027;-48
2023/02/04 02:14:07;;;;;;;12.65;5.60;;;;;;;6.38;58.85;100335.75;5093089;28;20114;-48
2023/02/04 02:16:32;;;;;;;11.25;6.63;;;;;;;6.29;60.01;100331.31;5091677;28;20078;-48
2023/02/04 02:18:58;;;;;;;7.47;5.45;;;;;;;6.18;60.40;100324.41;5091696;28;20024;-48
2023/02/04 02:21:38;;;;;;;8.70;6.78;;;;;;;6.03;61.17;100323.91;5092985;28;20028;-48
2023/02/04 02:24:25;;;;;;;13.07;5.63;;;;;;;5.98;61.09;100313.06;5091367;28;20078;-48
2023/02/04 02:26:53;;;;;;;7.85;5.85;;;;;;;6.06;60.91;100322.84;5092801;28;20023;-48
2023/02/04 02:29:19;;;;;;;13.80;5.63;;;;;;;6.14;61.82;100308.19;5092752;28;20124;-47
2023/02/04 02:31:44;;;;;;;13.35;8.18;;;;;;;6.20;61.89;100318.09;5092727;28;20052;-48
2023/02/04 02:34:10;;;;;;;14.10;8.23;;;;;;;6.26;62.48;100308.94;5092733;28;20081;-47
2023/02/04 02:36:36;;;;;;;10.48;5.93;;;;;;;6.44;61.94;100305.66;5092628;28;20062;-48
2023/02/04 02:39:02;;;;;;;8.45;5.20;;;;;;;6.54;60.91;100304.75;5092639;28;20023;-48
2023/02/04 02:41:27;;;;;;;10.85;5.63;;;;;;;6.50;60.54;100308.59;5091264;28;20023;-48
2023/02/04 02:43:53;;;;;;;12.45;4.70;;;;;;;6.58;60.58;100308.75;5092725;28;20035;-48
2023/02/04 02:46:19;;;;;;;8.18;4.80;;;;;;;6.54;59.66;100311.72;5091231;28;20036;-48
2023/02/04 02:48:44;;;;;;;8.68;5.05;;;;;;;6.36;59.89;100316.78;5092413;28;20401;-48
2023/02/04 02:51:10;;;;;;;6.95;5.15;;;;;;;6.16;59.78;100311.50;5091081;28;20020;-48
2023/02/04 02:53:36;;;;;;;12.38;6.20;;;;;;;6.01;59.73;100320.63;5092369;28;20118;-48
2023/02/04 02:56:03;;;;;;;11.57;5.10;;;;;;;5.92;61.35;100327.41;5092328;28;20027;-48
2023/02/04 02:58:32;;;;;;;11.57;4.95;;;;;;;6.06;61.05;100322.84;5092254;28;20036;-48
2023/02/04 03:01:04;;;;;;;8.80;4.75;;;;;;;5.98;60.38;100328.72;5092211;28;20016;-48
2023/02/04 03:03:33;;;;;;;10.23;5.15;;;;;;;5.69;60.96;100324.13;5090878;28;20031;-48
2023/02/04 03:06:23;;;;;;;6.57;5.05;;;;;;;5.55;60.82;100321.84;5090843;28;20024;-48
2023/02/04 03:08:54;;;;;;;12.00;5.47;;;;;;;5.57;61.38;100330.34;5091036;28;20031;-48
2023/02/04 03:11:21;;;;;;;7.28;5.13;;;;;;;5.73;61.85;100324.69;5092093;28;20039;-48
2023/02/04 03:13:48;;;;;;;7.90;5.22;;;;;;;5.91;61.01;100333.56;5090450;28;20028;-48
2023/02/04 03:16:13;;;;;;;12.63;5.15;;;;;;;5.79;60.80;100338.06;5090746;28;20428;-48
2023/02/04 03:18:39;;;;;;;8.23;5.18;;;;;;;5.56;61.52;100333.94;5090715;28;20089;-48
2023/02/04 03:21:05;;;;;;;8.05;5.00;;;;;;;5.42;60.88;100326.44;5090717;28;20034;-48
2023/02/04 03:23:34;;;;;;;7.47;5.18;;;;;;;5.25;61.88;100320.00;5090245;28;20052;-48
2023/02/04 03:26:02;;;;;;;8.98;4.68;;;;;;;5.11;61.95;100314.16;5091844;28;20167;-48
2023/02/04 03:28:29;;;;;;;10.25;5.43;;;;;;;4.96;62.92;100308.41;5074069;28;20047;-48
2023/02/04 03:30:55;;;;;;;9.70;5.40;;;;;;;4.99;63.17;100307.34;5091938;28;20024;-48
2023/02/04 03:33:25;;;;;;;9.25;4.75;;;;;;;5.16;63.31;100311.97;5092113;28;20054;-48
2023/02/04 03:35:51;;;;;;;8.02;3.95;;;;;;;5.56;63.76;100306.09;5092107;28;20024;-48
2023/02/04 03:38:18;;;;;;;11.52;4.00;;;;;;;6.21;64.98;100300.66;5091851;28;20028;-48
2023/02/04 03:40:44;;;;;;;12.18;5.10;;;;;;;6.83;64.28;100300.53;5092020;28;20405;-48
2023/02/04 03:43:10;;;;;;;9.95;5.25;;;;;;;7.29;62.94;100297.22;5090380;28;20027;-48
2023/02/04 03:45:35;;;;;;;11.40;4.57;;;;;;;7.43;62.11;100290.75;5090397;28;20032;-48
2023/02/04 03:48:02;;;;;;;11.05;4.50;;;;;;;7.52;62.51;100291.69;5090431;28;20021;-48
2023/02/04 03:50:28;;;;;;;10.95;4.07;;;;;;;7.56;62.14;100282.59;5091677;28;20059;-48
2023/02/04 03:52:53;;;;;;;16.38;3.80;;;;;;;7.66;61.75;100291.25;5091703;28;20044;-48
2023/02/04 03:55:20;;;;;;;5.22;3.83;;;;;;;7.75;61.66;100290.41;5091634;28;20028;-48
2023/02/04 03:57:45;;;;;;;24.73;5.93;;;;;;;7.81;61.76;100289.03;5090342;28;20020;-48
2023/02/04 04:00:12;;;;;;;9.88;4.03;;;;;;;7.90;61.43;100293.38;5090309;28;20073;-48
2023/02/04 04:02:39;;;;;;;9.73;3.53;;;;;;;7.96;61.19;100287.56;5073537;28;20020;-48
2023/02/04 04:05:06;;;;;;;11.30;4.55;;;;;;;8.03;61.20;100294.84;5091509;28;20024;-48
2023/02/04 04:07:31;;;;;;;10.35;3.60;;;;;;;8.25;61.28;100294.47;5091563;28;20028;-48
2023/02/04 04:09:57;;;;;;;5.78;3.92;;;;;;;8.50;60.63;100298.22;5091535;28;20546;-48
2023/02/04 04:12:23;;;;;;;13.13;3.97;;;;;;;8.60;59.90;100296.38;5091484;28;20024;-48
2023/02/04 04:14:48;;;;;;;7.65;3.55;;;;;;;8.73;59.46;100300.41;5091494;28;20553;-48
2023/02/04 04:17:14;;;;;;;4.68;3.40;;;;;;;8.73;59.43;100295.16;5090166;28;20020;-48
2023/02/04 04:19:40;;;;;;;13.02;4.07;;;;;;;8.67;59.14;100295.78;5090157;28;20061;-48
2023/02/04 04:22:05;;;;;;;9.13;4.35;;;;;;;8.70;59.40;100291.06;5090091;28;20020;-48
2023/02/04 04:24:31;;;;;;;7.03;3.65;;;;;;;8.87;58.95;100289.41;5089822;28;20053;-48
2023/02/04 04:26:56;;;;;;;10.63;3.38;;;;;;;8.99;58.97;100295.25;5091959;28;20102;-48
2023/02/04 04:29:22;;;;;;;8.60;3.58;;;;;;;9.14;58.65;100291.13;5095165;28;20473;-48
2023/02/04 04:31:48;;;;;;;8.10;3.25;;;;;;;9.18;58.10;100284.63;5095091;28;20020;-48
2023/02/04 04:34:13;;;;;;;7.82;3.35;;;;;;;9.05;57.79;100291.22;5095081;28;20102;-48
2023/02/04 04:36:39;;;;;;;13.82;3.78;;;;;;;8.92;58.03;100299.47;5095263;28;20508;-48
2023/02/04 04:39:05;;;;;;;5.50;3.33;;;;;;;8.85;58.15;100296.59;5095008;28;20024;-49
2023/02/04 04:41:30;;;;;;;6.30;3.25;;;;;;;8.79;58.02;100300.66;5094898;28;20024;-48
2023/02/04 04:43:56;;;;;;;6.53;3.63;;;;;;;8.70;58.48;100292.88;5094804;28;20055;-48
2023/02/04 04:46:22;;;;;;;5.60;3.78;;;;;;;8.65;58.24;100295.09;5094795;28;20024;-48
2023/02/04 04:48:47;;;;;;;11.25;3.78;;;;;;;8.63;58.79;100295.22;5094774;28;20020;-48
2023/02/04 04:51:13;;;;;;;7.15;3.55;;;;;;;8.78;58.91;100299.00;5094744;28;20043;-48
2023/02/04 04:53:39;;;;;;;7.22;3.70;;;;;;;9.05;58.38;100297.28;5093289;28;20032;-48
2023/02/04 04:56:04;;;;;;;8.98;4.40;;;;;;;9.46;58.05;100287.13;5093602;28;20036;-48
2023/02/04 04:58:30;;;;;;;12.75;4.43;;;;;;;9.82;57.29;100288.81;5094549;28;20027;-48
2023/02/04 05:00:55;;;;;;;11.00;6.00;;;;;;;10.05;56.15;100283.84;5094514;28;20048;-49
2023/02/04 05:03:21;;;;;;;6.97;3.83;;;;;;;10.17;55.95;100291.28;5093093;28;20024;-49
2023/02/04 05:05:47;;;;;;;9.07;4.07;;;;;;;10.18;55.85;100286.84;5094467;28;20020;-48
2023/02/04 05:08:15;;;;;;;8.40;3.63;;;;;;;10.14;55.81;100288.97;5093386;28;20024;-48
2023/02/04 05:10:42;;;;;;;7.85;3.72;;;;;;;10.16;56.32;100286.19;5094527;28;20024;-48
2023/02/04 05:13:08;;;;;;;7.18;3.65;;;;;;;10.26;55.82;100279.03;5094361;28;20024;-48
2023/02/04 05:15:34;;;;;;;11.27;4.78;;;;;;;10.16;55.76;100278.31;5092985;28;20080;-48
2023/02/04 05:18:00;;;;;;;5.28;3.05;;;;;;;10.08;55.94;100273.88;5092916;28;20032;-48
2023/02/04 05:20:26;;;;;;;5.78;3.42;;;;;;;10.10;56.12;100276.31;5094201;28;20028;-48
2023/02/04 05:22:52;;;;;;;5.55;2.83;;;;;;;10.24;55.72;100282.75;5092506;28;20046;-49
2023/02/04 05:25:17;;;;;;;7.57;3.85;;;;;;;10.20;55.86;100279.63;5092859;28;20020;-48
2023/02/04 05:27:44;;;;;;;6.32;2.90;;;;;;;10.13;56.07;100279.44;5092830;28;20051;-48
2023/02/04 05:30:11;;;;;;;8.73;4.35;;;;;;;10.14;56.75;100275.00;5075879;28;20140;-48
2023/02/04 05:32:37;;;;;;;5.93;3.40;;;;;;;9.97;56.58;100279.38;5092680;28;20032;-48
2023/02/04 05:35:03;;;;;;;8.50;3.28;;;;;;;9.84;57.14;100268.50;5092622;28;20028;-48
2023/02/04 05:37:29;;;;;;;4.57;3.10;;;;;;;9.90;57.84;100265.25;5092313;28;20122;-49
2023/02/04 05:39:54;;;;;;;7.97;3.15;;;;;;;10.02;57.63;100264.00;5093787;28;20103;-48
2023/02/04 05:42:20;;;;;;;11.18;3.53;;;;;;;9.95;57.92;100257.75;5093753;28;20436;-48
2023/02/04 05:44:45;;;;;;;8.80;3.38;;;;;;;9.95;58.45;100263.78;5093632;28;20508;-48
2023/02/04 05:47:11;;;;;;;11.32;4.15;;;;;;;10.01;59.27;100270.22;5093669;28;20027;-48
2023/02/04 05:49:36;;;;;;;7.63;3.72;;;;;;;10.16;59.27;100278.31;5093638;28;20024;-48
2023/02/04 05:52:03;;;;;;;5.10;3.10;;;;;;;10.34;59.11;100273.84;5092249;28;20096;-48
2023/02/04 05:54:28;;;;;;;11.00;3.65;;;;;;;10.49;58.92;100275.84;5093397;28;20044;-48
2023/02/04 05:56:54;;;;;;;4.95;3.25;;;;;;;10.66;58.89;100285.38;5093463;28;20028;-48
2023/02/04 05:59:19;;;;;;;8.50;3.17;;;;;;;10.73;58.32;100270.63;5093421;28;20479;-48
2023/02/04 06:01:45;;;;;;;7.68;3.53;;;;;;;10.73;58.22;100273.25;5093386;28;20063;-48
2023/02/04 06:04:11;;;;;;;10.32;3.15;;;;;;;10.78;58.70;100270.97;5092216;28;20024;-48
2023/02/04 06:06:36;;;;;;;8.80;3.63;;;;;;;10.83;58.81;100280.16;5093220;28;20024;-48
2023/02/04 06:09:02;;;;;;;13.38;3.42;;;;;;;10.89;58.99;100288.22;5091888;28;20520;-48
2023/02/04 06:11:28;;;;;;;5.93;3.03;;;;;;;10.95;59.02;100286.75;5091866;28;20101;-48
2023/02/04 06:13:53;;;;;;;4.25;2.40;;;;;;;10.91;59.28;100288.88;5093402;28;20092;-48
2023/02/04 06:16:19;;;;;;;5.18;2.90;;;;;;;10.87;59.35;100287.56;5093101;28;20482;-48
2023/02/04 06:18:44;;;;;;;4.43;3.28;;;;;;;10.81;59.23;100293.47;5091743;28;20020;-48
2023/02/04 06:21:10;;;;;;;3.75;2.70;;;;;;;10.87;59.69;100287.56;5092988;28;20497;-48
2023/02/04 06:23:36;;;;;;;5.78;2.80;;;;;;;10.95;59.79;100298.06;5092720;28;20048;-48
2023/02/04 06:26:02;;;;;;;4.60;2.88;;;;;;;11.00;60.02;100308.06;5091586;28;20055;-48
2023/02/04 06:28:28;;;;;;;8.18;3.22;;;;;;;10.98;60.19;100297.72;5091547;28;20032;-48
2023/02/04 06:30:54;;;;;;;9.63;3.40;;;;;;;10.96;60.53;100304.13;5091804;28;20073;-48
2023/02/04 06:33:21;;;;;;;5.97;3.20;;;;;;;10.88;60.92;100307.56;5092748;28;20111;-48
2023/02/04 06:35:47;;;;;;;7.47;3.45;;;;;;;10.82;61.19;100308.22;5092679;28;20374;-48
2023/02/04 06:38:13;;;;;;;5.93;3.13;;;;;;;10.82;61.35;100304.78;5091390;28;20043;-48
2023/02/04 06:40:39;;;;;;;6.60;3.33;;;;;;;10.72;61.49;100305.72;5091233;28;20118;-48
2023/02/04 06:43:04;;;;;;;6.97;3.55;;;;;;;10.66;61.72;100302.94;5092513;28;20150;-48
2023/02/04 06:45:30;;;;;;;7.45;3.60;;;;;;;10.63;62.06;100303.28;5092469;28;20020;-48
2023/02/04 06:47:55;;;;;;;850.90;733.80;;;;;;;10.67;62.62;100308.03;5092483;28;20098;-48
2023/02/04 06:50:21;;;;;;;288.42;197.40;;;;;;;10.64;62.31;100316.22;5090528;28;20024;-48
2023/02/04 06:52:47;;;;;;;86.78;48.45;;;;;;;10.56;62.67;100322.28;5092422;28;20570;-48
2023/02/04 06:55:14;;;;;;;34.60;25.00;;;;;;;10.57;62.68;100316.03;5091098;28;20028;-48
2023/02/04 06:57:40;;;;;;;30.52;24.35;;;;;;;10.61;62.91;100321.81;5091057;28;20038;-48
2023/02/04 07:00:07;;;;;;;23.95;15.75;;;;;;;10.67;63.10;100313.28;5092333;28;20020;-48
2023/02/04 07:02:33;;;;;;;28.75;15.25;;;;;;;10.65;63.03;100319.69;5092299;28;20020;-48
2023/02/04 07:05:00;;;;;;;16.83;10.88;;;;;;;10.67;63.05;100318.53;5090859;28;20028;-48
2023/02/04 07:07:26;;;;;;;25.10;14.40;;;;;;;10.55;63.20;100325.06;5092240;28;20028;-48
2023/02/04 07:09:52;;;;;;;14.02;8.60;;;;;;;10.54;63.71;100312.91;5092169;28;20389;-48
2023/02/04 07:12:18;;;;;;;16.65;10.50;;;;;;;10.64;63.92;100318.03;5092081;28;20031;-48
2023/02/04 07:14:44;;;;;;;15.48;8.60;;;;;;;10.66;63.32;100322.13;5092161;28;20028;-48
2023/02/04 07:17:09;;;;;;;14.73;8.70;;;;;;;10.66;63.85;100337.06;5092057;28;20024;-48
2023/02/04 07:19:35;;;;;;;15.77;8.63;;;;;;;10.60;63.58;100333.28;5092033;28;20028;-48
2023/02/04 07:22:02;;;;;;;9.05;6.60;;;;;;;10.61;64.30;100334.13;5092032;28;20029;-48
2023/02/04 07:24:27;;;;;;;12.18;7.60;;;;;;;10.63;64.27;100340.03;5091738;28;20523;-48
2023/02/04 07:26:53;;;;;;;11.40;6.95;;;;;;;10.69;64.63;100337.56;5091944;28;20103;-48
2023/02/04 07:29:18;;;;;;;12.43;6.93;;;;;;;10.72;63.98;100337.25;5091930;28;20503;-48
2023/02/04 07:31:45;;;;;;;9.40;5.05;;;;;;;10.72;64.08;100341.69;5091912;28;20016;-48
2023/02/04 07:34:13;;;;;;;11.93;6.40;;;;;;;10.65;64.21;100340.69;5091825;28;20031;-48
2023/02/04 07:36:39;;;;;;;8.68;6.38;;;;;;;10.69;64.64;100342.84;5091828;28;20566;-48
2023/02/04 07:39:05;;;;;;;12.35;6.03;;;;;;;10.79;64.16;100330.38;5091889;28;20032;-48
2023/02/04 07:41:31;;;;;;;9.40;5.93;;;;;;;10.82;63.72;100342.34;5091773;28;20061;-47
2023/02/04 07:43:57;;;;;;;7.63;4.72;;;;;;;10.88;64.12;100340.91;5091719;28;20028;-48
2023/02/04 07:46:23;;;;;;;10.50;5.75;;;;;;;10.95;64.14;100353.22;5091770;28;20098;-48
2023/02/04 07:48:48;;;;;;;8.07;4.57;;;;;;;11.02;64.04;100348.16;5091760;28;20542;-48
2023/02/04 07:51:14;;;;;;;10.60;4.40;;;;;;;11.14;63.75;100357.34;5090391;28;20375;-47
2023/02/04 07:53:40;;;;;;;9.85;4.35;;;;;;;11.20;63.09;100345.38;5090393;28;20102;-48
2023/02/04 07:56:05;;;;;;;6.53;4.30;;;;;;;11.23;62.99;100344.22;5090372;28;20016;-48
2023/02/04 07:58:31;;;;;;;6.22;3.92;;;;;;;11.20;62.56;100333.03;5091675;28;20496;-48
2023/02/04 08:00:57;;;;;;;13.18;4.00;;;;;;;11.18;62.76;100337.66;5092358;28;20024;-48
2023/02/04 08:03:22;;;;;;;5.93;3.60;;;;;;;11.16;62.00;100334.34;5095590;28;20024;-47
2023/02/04 08:05:48;;;;;;;7.03;4.00;;;;;;;11.06;62.38;100341.56;5094310;28;20051;-48
2023/02/04 08:08:14;;;;;;;7.63;3.88;;;;;;;10.93;62.85;100334.19;5095567;28;20030;-48
2023/02/04 08:10:40;;;;;;;4.95;4.13;;;;;;;10.91;62.50;100338.78;5094155;28;20050;-47
2023/02/04 08:13:05;;;;;;;6.55;4.95;;;;;;;10.84;62.74;100336.94;5095522;28;20020;-48
2023/02/04 08:15:31;;;;;;;7.80;4.50;;;;;;;10.80;63.10;100341.69;5095379;28;20516;-48
2023/02/04 08:17:57;;;;;;;6.93;3.33;;;;;;;10.85;63.23;100331.53;5094079;28;20529;-48
2023/02/04 08:20:23;;;;;;;5.93;3.67;;;;;;;10.72;63.04;100336.44;5095337;28;20024;-48
2023/02/04 08:22:48;;;;;;;5.45;3.15;;;;;;;10.72;63.92;100333.81;5095061;28;20533;-48
2023/02/04 08:25:14;;;;;;;4.20;3.05;;;;;;;10.68;62.92;100338.53;5095481;28;20389;-48
2023/02/04 08:27:40;;;;;;;5.30;3.42;;;;;;;10.61;63.90;100347.25;5093910;28;20565;-48
2023/02/04 08:30:06;;;;;;;4.38;3.28;;;;;;;10.74;64.08;100331.84;5093843;28;20016;-48
2023/02/04 08:32:32;;;;;;;4.38;2.78;;;;;;;10.89;63.99;100332.88;5093743;28;20451;-48
2023/02/04 08:34:58;;;;;;;5.43;3.10;;;;;;;11.09;63.49;100332.56;5093863;28;20024;-47
2023/02/04 08:37:23;;;;;;;3.55;2.72;;;;;;;11.15;62.70;100332.72;5094950;28;20020;-47
2023/02/04 08:39:49;;;;;;;8.02;2.97;;;;;;;11.06;62.29;100327.63;5095243;28;20052;-47
2023/02/04 08:42:15;;;;;;;4.00;2.85;;;;;;;11.08;62.83;100342.25;5094911;28;20028;-48
2023/02/04 08:44:41;;;;;;;4.60;3.08;;;;;;;11.17;63.04;100337.84;5093523;28;20020;-47
2023/02/04 08:47:08;;;;;;;7.50;2.92;;;;;;;11.23;62.35;100336.34;5094783;28;20028;-48
2023/02/04 08:49:35;;;;;;;10.77;3.20;;;;;;;11.15;62.45;100331.91;5094781;28;20151;-48
2023/02/04 08:52:01;;;;;;;4.70;2.78;;;;;;;11.16;62.79;100329.09;5093434;28;20028;-48
2023/02/04 08:54:27;;;;;;;3.53;2.40;;;;;;;11.07;62.06;100334.53;5094768;28;20031;-48
2023/02/04 08:56:53;;;;;;;4.65;2.70;;;;;;;10.94;62.40;100335.00;5094670;28;20024;-48
2023/02/04 08:59:21;;;;;;;9.88;2.80;;;;;;;11.03;63.26;100336.66;5094611;28;20025;-48
2023/02/04 09:01:48;;;;;;;3.45;2.42;;;;;;;11.22;62.74;100335.50;5094569;28;20482;-47
2023/02/04 09:04:14;;;;;;;4.55;2.58;;;;;;;11.41;62.64;100342.28;5094415;28;20024;-48
2023/02/04 09:06:39;;;;;;;4.22;2.63;;;;;;;11.58;62.16;100338.63;5094471;28;20032;-48
2023/02/04 09:09:05;;;;;;;5.32;2.63;;;;;;;11.72;60.91;100342.41;5093028;28;20021;-47
2023/02/04 09:11:31;;;;;;;4.78;2.40;;;;;;;11.73;60.71;100349.31;5094066;28;20103;-47
2023/02/04 09:13:56;;;;;;;4.57;2.60;;;;;;;11.68;60.84;100351.59;5094035;28;20023;-48
2023/02/04 09:16:22;;;;;;;5.55;2.70;;;;;;;11.69;61.00;100352.41;5092911;28;20032;-47
2023/02/04 09:18:48;;;;;;;3.05;2.00;;;;;;;11.62;60.81;100354.91;5092967;28;20024;-48
2023/02/04 09:21:13;;;;;;;4.25;2.75;;;;;;;11.62;60.84;100349.66;5092843;28;20067;-47
2023/02/04 09:23:39;;;;;;;5.82;2.58;;;;;;;11.73;60.91;100343.22;5092473;28;20067;-48
2023/02/04 09:26:05;;;;;;;3.28;2.42;;;;;;;11.74;60.99;100335.16;5092738;28;20525;-48
2023/02/04 09:28:31;;;;;;;4.15;2.10;;;;;;;11.80;60.81;100346.81;5092741;28;20512;-47
2023/02/04 09:30:57;;;;;;;3.80;2.60;;;;;;;11.89;60.50;100340.59;5093991;28;20024;-48
2023/02/04 09:33:23;;;;;;;2.72;2.38;;;;;;;11.93;60.40;100355.06;5092663;28;20038;-48
2023/02/04 09:35:48;;;;;;;4.32;2.53;;;;;;;12.02;60.36;100345.34;5093879;28;20497;-48
2023/02/04 09:38:14;;;;;;;6.53;2.83;;;;;;;12.22;60.22;100347.59;5092552;28;20028;-47
2023/02/04 09:40:45;;;;;;;3.08;2.25;;;;;;;12.32;59.49;100345.56;5092506;28;20020;-47
2023/02/04 09:43:17;;;;;;;4.38;2.30;;;;;;;12.37;58.56;100343.22;5092413;28;20028;-48
2023/02/04 09:45:42;;;;;;;3.13;2.33;;;;;;;12.37;58.88;100341.44;5093732;28;20531;-48
2023/02/04 09:48:12;;;;;;;6.03;4.32;;;;;;;12.41;58.73;100351.63;5093695;28;20051;-48
2023/02/04 09:50:38;;;;;;;7.22;5.40;;;;;;;12.32;58.30;100348.19;5093535;28;20069;-47
2023/02/04 09:53:06;;;;;;;4.13;3.47;;;;;;;12.17;58.88;100348.91;5093531;28;20032;-48
2023/02/04 09:55:42;;;;;;;11.38;6.45;;;;;;;11.98;59.37;100344.03;5093513;28;20520;-47
2023/02/04 09:58:17;;;;;;;3.83;2.85;;;;;;;11.97;59.52;100345.00;5093577;28;20055;-47
2023/02/04 10:00:44;;;;;;;3.07;2.40;;;;;;;11.87;59.84;100349.59;5092165;28;20020;-47
2023/02/04 10:03:18;;;;;;;4.65;2.30;;;;;;;11.83;60.42;100359.66;5093264;28;20254;-48
2023/02/04 10:05:45;;;;;;;5.20;2.15;;;;;;;11.95;60.63;100357.50;5092084;28;20028;-47
2023/02/04 10:08:28;;;;;;;2.38;2.17;;;;;;;12.02;59.48;100358.50;5091969;28;20020;-47
2023/02/04 10:10:54;;;;;;;1.88;1.67;;;;;;;11.84;60.31;100353.41;5091955;28;20405;-48
2023/02/04 10:13:29;;;;;;;3.25;2.10;;;;;;;11.97;60.05;100353.75;5093155;28;20101;-48
2023/02/04 10:15:55;;;;;;;;;;;;;;;12.07;59.97;100360.59;5092341;28;20028;-48
2023/02/04 10:18:25;;;;;;;;;;;;;;;12.30;59.74;100353.63;5075393;28;19915;-47
2023/02/04 10:21:08;;;;;;;10.23;3.58;;;;;;;12.50;58.68;100364.59;5091741;28;19923;-47
2023/02/04 10:23:33;;;;;;;17.83;5.43;;;;;;;12.84;58.33;100365.22;5090751;28;20059;-48
2023/02/04 10:25:59;;;;;;;5.57;5.07;;;;;;;13.01;57.25;100361.50;5091431;28;20028;-48
2023/02/04 10:28:34;;;;;;;2.80;1.98;;;;;;;13.08;56.69;100364.25;5092922;28;20028;-47
2023/02/04 10:31:00;;;;;;;3.05;1.80;;;;;;;13.09;56.37;100355.34;5091434;28;20509;-47
2023/02/04 10:33:26;;;;;;;10.25;2.15;;;;;;;13.25;56.71;100357.88;5092855;28;20036;-48
2023/02/04 10:35:54;;;;;;;3.78;2.17;;;;;;;13.44;55.67;100353.97;5092773;28;20077;-47
2023/02/04 10:38:20;;;;;;;2.83;1.90;;;;;;;13.53;55.24;100346.81;5092716;28;20081;-47
2023/02/04 10:40:47;;;;;;;2.67;1.63;;;;;;;13.72;54.65;100348.09;5091369;28;20450;-47
2023/02/04 10:43:20;;;;;;;2.22;1.95;;;;;;;13.88;54.61;100349.78;5091261;28;20111;-47
2023/02/04 10:45:54;;;;;;;5.10;2.05;;;;;;;14.15;54.00;100348.34;5091282;28;20439;-47
2023/02/04 10:48:20;;;;;;;3.15;1.95;;;;;;;14.23;53.39;100339.50;5091255;28;20046;-47
2023/02/04 10:50:47;;;;;;;3.22;2.08;;;;;;;14.16;52.74;100342.84;5092488;28;20359;-47
2023/02/04 10:56:16;;;;;;;2.28;1.88;;;;;;;13.68;53.95;100334.47;5092655;28;20082;-47
2023/02/04 10:58:41;;;;;;;2.78;1.95;;;;;;;13.51;54.89;100330.34;5091127;28;20028;-47
2023/02/04 11:01:12;;;;;;;2.58;2.30;;;;;;;13.52;55.64;100332.81;5092314;28;20024;-47
2023/02/04 11:03:39;;;;;;;6.38;3.30;;;;;;;13.58;55.13;100324.19;5092276;28;20401;-47
2023/02/04 11:06:10;;;;;;;3.00;2.40;;;;;;;13.74;54.70;100323.19;5090955;28;20028;-47
2023/02/04 11:08:37;;;;;;;3.22;2.72;;;;;;;13.80;54.54;100326.91;5092378;28;20032;-47
2023/02/04 11:11:17;;;;;;;3.53;2.60;;;;;;;13.83;54.76;100313.38;5092127;28;20543;-47
2023/02/04 11:13:49;;;;;;;5.22;2.78;;;;;;;14.03;54.80;100311.00;5092212;28;20055;-48
2023/02/04 11:16:17;;;;;;;3.67;2.80;;;;;;;14.22;53.55;100298.25;5092084;28;20020;-47
2023/02/04 11:18:52;;;;;;;4.65;2.58;;;;;;;14.22;53.17;100277.13;5090790;28;20093;-47
2023/02/04 11:21:22;;;;;;;8.25;3.45;;;;;;;14.15;53.87;100287.59;5092079;28;20078;-47
2023/02/04 11:23:49;;;;;;;4.70;3.03;;;;;;;15.09;51.60;100287.63;5090390;28;20040;-47
2023/02/04 11:26:21;;;;;;;3.80;3.10;;;;;;;15.30;50.93;100284.13;5090654;28;20067;-47
2023/02/04 11:28:49;;;;;;;3.28;2.97;;;;;;;16.08;48.86;100286.69;5091943;28;20055;-47